createdAt,value
2023-10-21T00:01:00.376Z,1.77
2023-10-21T00:03:28.156Z,1.33
2023-10-21T00:05:56.003Z,1.83
2023-10-21T00:08:25.116Z,1.87
2023-10-21T00:11:03.194Z,1.30
2023-10-21T00:13:30.849Z,1.30
2023-10-21T00:15:58.610Z,1.80
2023-10-21T00:18:26.984Z,1.77
2023-10-21T00:20:56.066Z,1.40
2023-10-21T00:23:25.326Z,1.67
2023-10-21T00:25:53.016Z,1.60
2023-10-21T00:28:20.770Z,1.53
2023-10-21T00:30:49.441Z,1.80
2023-10-21T00:33:17.549Z,1.43
2023-10-21T00:35:46.868Z,1.40
2023-10-21T00:38:14.602Z,1.40
2023-10-21T00:40:52.681Z,1.30
2023-10-21T00:43:34.384Z,1.60
2023-10-21T00:46:05.239Z,1.43
2023-10-21T00:48:33.250Z,1.20
2023-10-21T00:51:01.518Z,1.67
2023-10-21T00:53:30.307Z,1.47
2023-10-21T00:55:59.516Z,1.40
2023-10-21T00:58:28.733Z,1.40
2023-10-21T01:00:56.742Z,1.40
2023-10-21T01:03:27.455Z,1.33
2023-10-21T01:05:55.543Z,1.80
2023-10-21T01:08:23.349Z,1.50
2023-10-21T01:10:51.065Z,1.20
2023-10-21T01:13:20.555Z,1.60
2023-10-21T01:15:49.787Z,1.43
2023-10-21T01:18:17.614Z,1.50
2023-10-21T01:20:45.405Z,1.87
2023-10-21T01:23:15.706Z,1.30
2023-10-21T01:25:44.756Z,1.13
2023-10-21T01:28:13.257Z,1.80
2023-10-21T01:30:41.060Z,1.47
2023-10-21T01:33:08.861Z,1.50
2023-10-21T01:35:36.578Z,1.67
2023-10-21T01:38:04.896Z,1.53
2023-10-21T01:40:34.093Z,1.43
2023-10-21T01:43:02.820Z,1.20
2023-10-21T01:45:30.823Z,1.20
2023-10-21T01:47:59.166Z,1.17
2023-10-21T01:50:26.994Z,1.00
2023-10-21T01:52:54.696Z,1.20
2023-10-21T01:55:22.600Z,1.20
2023-10-21T01:57:51.902Z,1.70
2023-10-21T02:00:21.538Z,1.10
2023-10-21T02:02:51.774Z,1.40
2023-10-21T02:05:20.419Z,1.30
2023-10-21T02:07:48.728Z,1.20
2023-10-21T02:10:18.346Z,1.20
2023-10-21T02:12:46.202Z,1.40
2023-10-21T02:15:16.376Z,1.40
2023-10-21T02:17:45.856Z,1.50
2023-10-21T02:20:16.364Z,1.23
2023-10-21T02:22:44.954Z,1.20
2023-10-21T02:25:15.786Z,1.60
2023-10-21T02:27:44.448Z,1.20
2023-10-21T02:30:14.635Z,0.90
2023-10-21T02:32:46.717Z,1.33
2023-10-21T02:35:15.104Z,1.53
2023-10-21T02:37:43.150Z,1.50
2023-10-21T02:40:12.362Z,1.57
2023-10-21T02:42:39.990Z,1.50
2023-10-21T02:45:08.762Z,1.63
2023-10-21T02:47:37.212Z,2.00
2023-10-21T02:50:08.027Z,2.27
2023-10-21T02:52:37.281Z,1.70
2023-10-21T02:55:06.347Z,1.83
2023-10-21T02:57:34.023Z,1.97
2023-10-21T03:00:01.948Z,1.90
2023-10-21T03:02:29.825Z,1.40
2023-10-21T03:04:57.568Z,1.43
2023-10-21T03:07:26.585Z,1.60
2023-10-21T03:09:54.286Z,1.50
2023-10-21T03:12:22.315Z,1.30
2023-10-21T03:14:50.067Z,1.00
2023-10-21T03:17:17.796Z,1.00
2023-10-21T03:19:45.593Z,1.20
2023-10-21T03:22:13.309Z,1.10
2023-10-21T03:24:42.345Z,1.60
2023-10-21T03:27:10.212Z,1.60
2023-10-21T03:29:37.922Z,1.20
2023-10-21T03:32:06.590Z,1.57
2023-10-21T03:34:34.477Z,1.10
2023-10-21T03:37:02.680Z,1.60
2023-10-21T03:39:30.339Z,1.67
2023-10-21T03:41:59.446Z,1.50
2023-10-21T03:44:27.794Z,1.97
2023-10-21T03:46:55.616Z,2.70
2023-10-21T03:49:23.875Z,1.67
2023-10-21T03:51:51.557Z,1.77
2023-10-21T03:54:19.243Z,1.50
2023-10-21T03:56:46.937Z,1.60
2023-10-21T03:59:15.926Z,1.83
2023-10-21T04:01:43.973Z,1.57
2023-10-21T04:04:11.625Z,1.70
2023-10-21T04:06:39.635Z,1.53
2023-10-21T04:09:09.180Z,1.87
2023-10-21T04:11:37.026Z,1.53
2023-10-21T04:14:06.190Z,1.63
2023-10-21T04:16:35.261Z,1.93
2023-10-21T04:19:02.971Z,1.90
2023-10-21T04:21:30.786Z,2.33
2023-10-21T04:23:58.570Z,2.90
2023-10-21T04:26:26.308Z,1.90
2023-10-21T04:28:54.766Z,2.40
2023-10-21T04:31:22.481Z,2.67
2023-10-21T04:33:52.116Z,2.23
2023-10-21T04:36:20.311Z,2.50
2023-10-21T04:38:48.309Z,2.87
2023-10-21T04:41:16.034Z,3.50
2023-10-21T04:43:43.714Z,2.70
2023-10-21T04:46:12.641Z,3.20
2023-10-21T04:48:40.374Z,3.03
2023-10-21T04:51:10.298Z,3.33
2023-10-21T04:53:38.602Z,3.17
2023-10-21T04:56:06.842Z,3.20
2023-10-21T04:58:35.192Z,3.60
2023-10-21T05:01:03.991Z,3.30
2023-10-21T05:03:31.829Z,4.73
2023-10-21T05:05:59.645Z,4.43
2023-10-21T05:08:28.706Z,3.80
2023-10-21T05:10:56.362Z,3.80
2023-10-21T05:13:24.708Z,3.10
2023-10-21T05:15:52.476Z,4.33
2023-10-21T05:18:20.283Z,3.03
2023-10-21T05:20:48.240Z,3.03
2023-10-21T05:23:16.140Z,3.30
2023-10-21T05:25:45.161Z,3.70
2023-10-21T05:28:12.943Z,3.37
2023-10-21T05:30:42.207Z,3.30
2023-10-21T05:33:10.396Z,2.97
2023-10-21T05:35:38.661Z,3.00
2023-10-21T05:38:06.359Z,3.20
2023-10-21T05:40:34.098Z,3.17
2023-10-21T05:43:03.469Z,3.20
2023-10-21T05:45:32.246Z,3.40
2023-10-21T05:48:00.249Z,3.90
2023-10-21T05:50:28.044Z,4.00
2023-10-21T05:52:56.062Z,3.97
2023-10-21T05:55:23.809Z,3.80
2023-10-21T05:57:51.535Z,3.30
2023-10-21T06:00:21.059Z,3.10
2023-10-21T06:02:49.123Z,4.03
2023-10-21T06:05:17.270Z,3.00
2023-10-21T06:07:44.927Z,3.40
2023-10-21T06:10:12.972Z,3.97
2023-10-21T06:12:41.034Z,3.40
2023-10-21T06:15:09.565Z,3.53
2023-10-21T06:17:38.746Z,2.73
2023-10-21T06:20:08.665Z,4.80
2023-10-21T06:22:36.427Z,3.30
2023-10-21T06:25:05.516Z,2.93
2023-10-21T06:27:33.255Z,3.70
2023-10-21T06:30:01.162Z,2.70
2023-10-21T06:32:28.974Z,2.47
2023-10-21T06:34:58.359Z,2.57
2023-10-21T06:37:26.025Z,2.80
2023-10-21T06:39:53.767Z,2.10
2023-10-21T06:42:21.541Z,2.50
2023-10-21T06:44:49.337Z,2.60
2023-10-21T06:47:17.970Z,2.50
2023-10-21T06:49:46.355Z,1.73
2023-10-21T06:52:16.253Z,2.27
2023-10-21T06:54:44.308Z,2.20
2023-10-21T06:57:12.084Z,1.87
2023-10-21T06:59:39.823Z,1.87
2023-10-21T07:02:09.209Z,1.80
2023-10-21T07:04:38.670Z,2.20
2023-10-21T07:07:06.733Z,1.83
2023-10-21T07:09:35.834Z,1.50
2023-10-21T07:12:04.444Z,1.43
2023-10-21T07:14:32.592Z,1.17
2023-10-21T07:17:01.361Z,1.20
2023-10-21T07:19:29.113Z,1.10
2023-10-21T07:21:56.897Z,1.20
2023-10-21T07:24:24.935Z,1.33
2023-10-21T07:26:54.071Z,1.20
2023-10-21T07:29:23.232Z,1.07
2023-10-21T07:31:51.415Z,1.07
2023-10-21T07:34:19.866Z,1.00
2023-10-21T07:36:48.726Z,0.80
2023-10-21T07:39:19.327Z,1.83
2023-10-21T07:41:47.072Z,1.00
2023-10-21T07:44:18.594Z,0.60
2023-10-21T07:46:47.533Z,0.87
2023-10-21T07:49:15.264Z,0.90
2023-10-21T07:51:42.952Z,1.10
2023-10-21T07:54:10.700Z,0.83
2023-10-21T07:56:38.650Z,1.23
2023-10-21T07:59:06.645Z,1.07
2023-10-21T08:01:35.740Z,1.00
2023-10-21T08:04:03.542Z,1.10
2023-10-21T08:06:31.381Z,1.20
2023-10-21T08:08:59.175Z,1.07
2023-10-21T08:11:27.071Z,1.10
2023-10-21T08:13:54.746Z,0.77
2023-10-21T08:16:22.588Z,0.80
2023-10-21T08:18:51.989Z,1.00
2023-10-21T08:21:19.904Z,0.80
2023-10-21T08:23:47.727Z,1.30
2023-10-21T08:26:15.447Z,1.10
2023-10-21T08:28:43.270Z,0.73
2023-10-21T08:31:11.088Z,0.87
2023-10-21T08:33:38.916Z,0.73
2023-10-21T08:36:21.696Z,0.70
2023-10-21T08:38:52.113Z,0.70
2023-10-21T08:41:20.809Z,0.77
2023-10-21T08:43:50.007Z,0.70
2023-10-21T08:46:19.278Z,0.83
2023-10-21T08:48:48.493Z,0.83
2023-10-21T08:51:22.868Z,0.90
2023-10-21T08:53:55.058Z,1.00
2023-10-21T08:56:23.415Z,0.80
2023-10-21T08:58:52.212Z,0.70
2023-10-21T09:01:19.998Z,0.77
2023-10-21T09:03:48.770Z,0.93
2023-10-21T09:06:19.001Z,0.60
2023-10-21T09:08:49.448Z,1.00
2023-10-21T09:11:19.322Z,0.67
2023-10-21T09:13:48.117Z,0.90
2023-10-21T09:16:21.562Z,0.90
2023-10-21T09:19:04.559Z,0.80
2023-10-21T09:21:37.850Z,0.70
2023-10-21T09:24:10.442Z,0.93
2023-10-21T09:26:39.390Z,0.70
2023-10-21T09:29:09.043Z,1.00
2023-10-21T09:31:52.663Z,0.90
2023-10-21T09:34:30.555Z,0.80
2023-10-21T09:37:00.113Z,0.90
2023-10-21T09:39:31.739Z,0.60
2023-10-21T09:42:01.138Z,0.70
2023-10-21T09:44:30.737Z,0.80
2023-10-21T09:46:59.806Z,0.70
2023-10-21T09:49:28.868Z,0.70
2023-10-21T09:52:05.791Z,0.60
2023-10-21T09:54:42.547Z,0.67
2023-10-21T09:57:12.803Z,0.67
2023-10-21T09:59:41.600Z,0.60
2023-10-21T10:02:11.270Z,0.60
2023-10-21T10:04:40.428Z,0.67
2023-10-21T10:07:12.254Z,0.60
2023-10-21T10:09:45.515Z,0.60
2023-10-21T10:12:19.314Z,0.60
2023-10-21T10:14:47.383Z,0.70
2023-10-21T10:17:15.473Z,0.70
2023-10-21T10:19:44.271Z,0.90
2023-10-21T10:22:21.934Z,0.63
2023-10-21T10:24:56.350Z,0.73
2023-10-21T10:27:37.304Z,0.80
2023-10-21T10:30:10.083Z,0.70
2023-10-21T10:32:44.452Z,0.70
2023-10-21T10:35:30.940Z,0.70
2023-10-21T10:38:00.182Z,0.80
2023-10-21T10:40:40.108Z,0.90
2023-10-21T10:43:12.006Z,0.70
2023-10-21T10:45:39.932Z,0.60
2023-10-21T10:48:09.381Z,0.70
2023-10-21T10:50:38.839Z,0.90
2023-10-21T10:53:14.156Z,0.90
2023-10-21T10:55:45.579Z,1.00
2023-10-21T10:58:13.481Z,1.33
2023-10-21T11:00:41.468Z,0.83
2023-10-21T11:03:10.093Z,0.80
2023-10-21T11:05:39.277Z,1.30
2023-10-21T11:08:10.140Z,0.60
2023-10-21T11:10:38.405Z,0.93
2023-10-21T11:13:07.946Z,1.23
2023-10-21T11:15:42.318Z,1.10
2023-10-21T11:18:10.262Z,0.80
2023-10-21T11:20:48.213Z,2.67
2023-10-21T11:23:18.111Z,0.90
2023-10-21T11:25:48.861Z,1.00
2023-10-21T11:28:18.678Z,0.90
2023-10-21T11:30:47.431Z,1.17
2023-10-21T11:33:15.912Z,0.80
2023-10-21T11:35:45.562Z,1.00
2023-10-21T11:38:14.528Z,0.90
2023-10-21T11:40:42.697Z,0.80
2023-10-21T11:43:13.933Z,1.00
2023-10-21T11:45:43.722Z,0.90
2023-10-21T11:48:11.949Z,0.80
2023-10-21T11:50:43.253Z,1.03
2023-10-21T11:53:13.384Z,0.80
2023-10-21T11:56:11.774Z,0.97
2023-10-21T11:58:57.330Z,1.00
2023-10-21T12:01:43.803Z,0.93
2023-10-21T12:07:31.419Z,1.33
2023-10-21T12:10:15.836Z,1.10
2023-10-21T12:13:03.280Z,1.20
2023-10-21T12:15:52.615Z,0.80
2023-10-21T12:18:36.408Z,1.03
2023-10-21T12:21:42.500Z,1.33
2023-10-21T12:24:46.044Z,1.30
2023-10-21T12:27:34.213Z,1.00
2023-10-21T12:30:34.527Z,1.20
2023-10-21T12:33:22.750Z,1.37
2023-10-21T12:35:55.957Z,0.97
2023-10-21T12:38:24.800Z,1.03
2023-10-21T12:41:16.859Z,1.20
2023-10-21T12:43:49.810Z,1.10
2023-10-21T12:46:18.820Z,1.80
2023-10-21T12:48:48.760Z,1.10
2023-10-21T12:51:17.511Z,1.53
2023-10-21T12:53:46.073Z,1.30
2023-10-21T12:56:15.528Z,1.33
2023-10-21T12:58:43.452Z,0.93
2023-10-21T13:01:13.303Z,1.80
2023-10-21T13:03:41.883Z,1.37
2023-10-21T13:06:10.777Z,1.23
2023-10-21T13:08:38.537Z,1.60
2023-10-21T13:11:07.013Z,1.03
2023-10-21T13:14:18.643Z,1.30
2023-10-21T13:16:50.969Z,1.43
2023-10-21T13:19:26.611Z,1.40
2023-10-21T13:22:09.546Z,1.57
2023-10-21T13:24:48.823Z,1.20
2023-10-21T13:27:33.298Z,1.50
2023-10-21T13:30:23.885Z,2.20
2023-10-21T13:32:52.957Z,1.40
2023-10-21T13:35:20.862Z,1.67
2023-10-21T13:37:48.928Z,1.73
2023-10-21T13:40:16.827Z,1.37
2023-10-21T13:42:46.510Z,1.37
2023-10-21T13:45:21.058Z,1.30
2023-10-21T13:47:49.984Z,1.50
2023-10-21T13:50:19.330Z,1.30
2023-10-21T13:52:47.418Z,1.27
2023-10-21T13:55:16.791Z,1.70
2023-10-21T13:57:46.339Z,1.50
2023-10-21T14:00:35.514Z,1.23
2023-10-21T14:03:13.344Z,1.13
2023-10-21T14:05:42.912Z,1.50
2023-10-21T14:08:12.216Z,1.80
2023-10-21T14:10:44.028Z,1.53
2023-10-21T14:13:16.766Z,1.40
2023-10-21T14:15:46.764Z,1.40
2023-10-21T14:18:14.604Z,1.70
2023-10-21T14:20:42.626Z,1.50
2023-10-21T14:23:11.087Z,1.77
2023-10-21T14:25:40.735Z,1.50
2023-10-21T14:28:12.083Z,1.97
2023-10-21T14:30:43.208Z,1.47
2023-10-21T14:33:13.686Z,1.80
2023-10-21T14:35:41.817Z,2.23
2023-10-21T14:38:10.210Z,1.37
2023-10-21T14:40:39.712Z,1.33
2023-10-21T14:43:08.994Z,1.50
2023-10-21T14:45:37.594Z,1.13
2023-10-21T14:48:08.429Z,1.50
2023-10-21T14:50:39.399Z,1.80
2023-10-21T14:53:09.386Z,1.50
2023-10-21T14:55:50.831Z,1.23
2023-10-21T14:58:23.302Z,1.47
2023-10-21T15:00:51.664Z,1.67
2023-10-21T15:03:21.047Z,1.70
2023-10-21T15:05:51.308Z,1.77
2023-10-21T15:08:22.106Z,1.80
2023-10-21T15:10:50.699Z,1.40
2023-10-21T15:13:19.343Z,1.70
2023-10-21T15:15:48.144Z,1.57
2023-10-21T15:18:16.040Z,1.30
2023-10-21T15:20:43.890Z,1.43
2023-10-21T15:23:13.114Z,1.27
2023-10-21T15:25:41.770Z,1.43
2023-10-21T15:28:09.614Z,1.57
2023-10-21T15:30:37.447Z,1.50
2023-10-21T15:33:05.747Z,1.27
2023-10-21T15:35:34.130Z,1.10
2023-10-21T15:38:02.301Z,1.80
2023-10-21T15:40:32.089Z,1.67
2023-10-21T15:43:00.213Z,1.67
2023-10-21T15:45:28.354Z,1.53
2023-10-21T15:48:00.221Z,1.93
2023-10-21T15:50:28.501Z,1.10
2023-10-21T15:52:56.289Z,1.93
2023-10-21T15:55:23.981Z,1.40
2023-10-21T15:57:53.341Z,2.30
2023-10-21T16:00:22.273Z,1.60
2023-10-21T16:02:50.664Z,2.27
2023-10-21T16:05:18.898Z,1.57
2023-10-21T16:08:05.910Z,1.53
2023-10-21T16:10:33.848Z,1.60
2023-10-21T16:13:03.173Z,1.67
2023-10-21T16:15:32.451Z,1.43
2023-10-21T16:18:00.415Z,1.70
2023-10-21T16:20:29.247Z,1.67
2023-10-21T16:22:57.262Z,1.83
2023-10-21T16:25:25.125Z,1.53
2023-10-21T16:27:52.965Z,1.57
2023-10-21T16:30:22.257Z,2.10
2023-10-21T16:32:50.558Z,1.47
2023-10-21T16:35:18.698Z,1.70
2023-10-21T16:37:46.453Z,1.90
2023-10-21T16:40:14.458Z,1.40
2023-10-21T16:42:42.860Z,1.57
2023-10-21T16:45:11.361Z,1.50
2023-10-21T16:47:40.584Z,2.53
2023-10-21T16:50:09.293Z,1.50
2023-10-21T16:52:37.003Z,1.60
2023-10-21T16:55:05.249Z,1.20
2023-10-21T16:57:33.827Z,1.40
2023-10-21T17:00:03.071Z,2.70
2023-10-21T17:02:30.855Z,1.60
2023-10-21T17:05:00.187Z,1.23
2023-10-21T17:07:29.614Z,1.77
2023-10-21T17:09:57.387Z,1.50
2023-10-21T17:12:25.185Z,1.43
2023-10-21T17:14:54.133Z,2.20
2023-10-21T17:17:22.092Z,1.50
2023-10-21T17:19:49.963Z,1.60
2023-10-21T17:22:19.251Z,1.53
2023-10-21T17:24:46.982Z,2.00
2023-10-21T17:27:14.766Z,1.80
2023-10-21T17:29:42.614Z,1.67
2023-10-21T17:32:10.375Z,1.30
2023-10-21T17:34:38.158Z,2.00
2023-10-21T17:37:05.911Z,2.07
2023-10-21T17:39:35.023Z,1.73
2023-10-21T17:42:03.887Z,1.80
2023-10-21T17:44:33.157Z,1.63
2023-10-21T17:47:01.404Z,1.80
2023-10-21T17:49:29.280Z,2.37
2023-10-21T17:51:58.368Z,1.67
2023-10-21T17:54:26.730Z,1.87
2023-10-21T17:56:55.904Z,2.27
2023-10-21T17:59:23.769Z,1.00
2023-10-21T18:01:51.709Z,1.97
2023-10-21T18:04:19.570Z,1.87
2023-10-21T18:06:47.525Z,1.40
2023-10-21T18:09:15.502Z,1.50
2023-10-21T18:11:43.298Z,1.93
2023-10-21T18:14:12.396Z,1.70
2023-10-21T18:16:41.938Z,1.67
2023-10-21T18:19:10.041Z,1.70
2023-10-21T18:21:38.084Z,1.60
2023-10-21T18:24:06.471Z,1.80
2023-10-21T18:26:34.547Z,1.30
2023-10-21T18:29:03.426Z,2.00
2023-10-21T18:31:32.593Z,1.43
2023-10-21T18:34:00.410Z,2.40
2023-10-21T18:36:28.205Z,1.40
2023-10-21T18:38:55.931Z,1.90
2023-10-21T18:41:23.934Z,1.50
2023-10-21T18:43:51.768Z,1.33
2023-10-21T18:46:19.579Z,1.40
2023-10-21T18:48:49.082Z,1.63
2023-10-21T18:51:23.104Z,1.13
2023-10-21T18:53:51.418Z,1.40
2023-10-21T18:56:19.123Z,1.90
2023-10-21T18:58:46.946Z,1.63
2023-10-21T19:01:14.710Z,1.30
2023-10-21T19:03:42.966Z,1.60
2023-10-21T19:06:12.170Z,1.20
2023-10-21T19:08:39.922Z,1.40
2023-10-21T19:11:08.056Z,1.40
2023-10-21T19:13:37.098Z,2.27
2023-10-21T19:16:05.686Z,1.30
2023-10-21T19:18:33.498Z,1.57
2023-10-21T19:21:06.120Z,1.27
2023-10-21T19:23:35.361Z,1.90
2023-10-21T19:26:03.080Z,1.33
2023-10-21T19:28:31.049Z,1.50
2023-10-21T19:30:59.512Z,1.57
2023-10-21T19:33:28.167Z,1.40
2023-10-21T19:35:55.901Z,1.47
2023-10-21T19:38:23.842Z,2.00
2023-10-21T19:40:53.139Z,1.20
2023-10-21T19:43:20.801Z,0.93
2023-10-21T19:45:48.642Z,1.37
2023-10-21T19:48:16.485Z,1.20
2023-10-21T19:50:45.827Z,1.47
2023-10-21T19:53:13.632Z,1.30
2023-10-21T19:55:41.376Z,1.20
2023-10-21T19:58:10.404Z,1.30
2023-10-21T20:00:38.189Z,1.20
2023-10-21T20:03:05.978Z,1.23
2023-10-21T20:05:34.852Z,1.60
2023-10-21T20:08:02.535Z,1.47
2023-10-21T20:10:30.460Z,1.23
2023-10-21T20:12:58.246Z,1.50
2023-10-21T20:15:27.430Z,1.53
2023-10-21T20:17:56.230Z,1.80
2023-10-21T20:20:24.074Z,1.60
2023-10-21T20:22:51.750Z,1.30
2023-10-21T20:25:19.461Z,1.80
2023-10-21T20:27:47.761Z,1.33
2023-10-21T20:30:15.658Z,1.30
2023-10-21T20:32:47.982Z,1.53
2023-10-21T20:35:31.841Z,1.37
2023-10-21T20:38:04.946Z,1.17
2023-10-21T20:40:32.838Z,1.40
2023-10-21T20:43:00.580Z,1.67
2023-10-21T20:45:28.450Z,1.10
2023-10-21T20:47:57.750Z,1.67
2023-10-21T20:50:25.576Z,1.40
2023-10-21T20:52:54.189Z,1.47
2023-10-21T20:55:22.068Z,1.50
2023-10-21T20:57:49.944Z,1.60
2023-10-21T21:00:18.379Z,1.63
2023-10-21T21:02:46.178Z,1.27
2023-10-21T21:05:16.333Z,1.40
2023-10-21T21:10:15.086Z,1.77
2023-10-21T21:12:42.844Z,1.20
2023-10-21T21:15:10.982Z,1.27
2023-10-21T21:17:39.107Z,1.30
2023-10-21T21:20:09.172Z,1.40
2023-10-21T21:22:38.368Z,1.30
2023-10-21T21:25:06.987Z,1.37
2023-10-21T21:27:34.875Z,1.70
2023-10-21T21:30:02.806Z,1.60
2023-10-21T21:32:30.879Z,1.50
2023-10-21T21:34:58.645Z,1.53
2023-10-21T21:37:26.344Z,1.87
2023-10-21T21:39:57.568Z,1.20
2023-10-21T21:42:25.913Z,1.20
2023-10-21T21:44:53.943Z,1.20
2023-10-21T21:47:21.760Z,1.63
2023-10-21T21:49:49.620Z,1.87
2023-10-21T21:52:17.365Z,1.10
2023-10-21T21:54:46.840Z,1.30
2023-10-21T21:57:16.233Z,1.10
2023-10-21T21:59:47.762Z,1.30
2023-10-21T22:02:15.774Z,1.97
2023-10-21T22:04:44.107Z,1.47
2023-10-21T22:07:12.898Z,2.03
2023-10-21T22:09:41.300Z,1.43
2023-10-21T22:12:10.159Z,1.30
2023-10-21T22:14:39.502Z,0.97
2023-10-21T22:17:09.257Z,1.00
2023-10-21T22:19:37.667Z,1.20
2023-10-21T22:22:07.781Z,1.23
2023-10-21T22:24:35.818Z,1.17
2023-10-21T22:27:05.460Z,1.43
2023-10-21T22:29:36.409Z,1.70
2023-10-21T22:32:07.302Z,1.30
2023-10-21T22:34:35.163Z,1.07
2023-10-21T22:37:03.562Z,1.50
2023-10-21T22:39:32.658Z,1.30
2023-10-21T22:42:00.436Z,1.27
2023-10-21T22:44:28.349Z,1.40
2023-10-21T22:46:56.986Z,1.33
2023-10-21T22:49:26.043Z,2.07
2023-10-21T22:51:53.938Z,1.40
2023-10-21T22:54:21.624Z,1.57
2023-10-21T22:56:49.402Z,1.53
2023-10-21T22:59:17.159Z,1.20
2023-10-21T23:01:44.895Z,1.73
2023-10-21T23:04:12.646Z,1.40
2023-10-21T23:06:42.616Z,1.70
2023-10-21T23:09:28.336Z,1.30
2023-10-21T23:11:56.117Z,1.23
2023-10-21T23:14:24.119Z,1.67
2023-10-21T23:16:51.780Z,1.17
2023-10-21T23:19:19.503Z,0.90
2023-10-21T23:21:49.392Z,1.47
2023-10-21T23:24:17.340Z,1.20
2023-10-21T23:26:45.076Z,1.40
2023-10-21T23:29:12.849Z,1.50
2023-10-21T23:31:40.644Z,1.30
2023-10-21T23:34:08.587Z,1.70
2023-10-21T23:36:36.319Z,1.30
2023-10-21T23:39:06.667Z,0.93
2023-10-21T23:41:34.589Z,1.50
2023-10-21T23:44:02.338Z,0.87
2023-10-21T23:46:30.834Z,1.07
2023-10-21T23:48:59.086Z,1.40
2023-10-21T23:51:26.872Z,1.10
2023-10-21T23:53:54.661Z,0.97
2023-10-21T23:56:24.810Z,1.13
2023-10-21T23:58:52.567Z,1.50
